Nashville, Tennessee
Traffic Map
Current Weather Conditions
Nashville, Tennessee
Broken Clouds
Broken Clouds
33°
Feels Like: 35°
Wind Chill: 33° Ceiling: 25000
Heat Index: 35° Visibility: 10mi
Dew Point: 20° Wind: 9mph
Humidity: 47% Direction: 340° (NNW)
Pressure: 29.92in Gusts: 0mph
Raw Report DataKBNA 312153Z 34008KT 10SM SCT055TCU BKN250 33/20 A2992 RMK AO2 LTG DSNT N SLP124 CB DSNT N AND S TCU OHD-ALQDS T03280200
Traffic Incident Summary
Active as of:
Severity:
Category:
InformationThere was an issue retrieving the traffic information for this location. Please try a different location or try again shortly.
Advertisements
Track Severe Weather on mobile